sensor_id;sensor_type;location;lat;lon;timestamp;pressure;altitude;pressure_sealevel;temperature;humidity
64354;BME280;50681;53.334;-6.536;2024-01-30T00:01:34;101797.25;;;8.52;100.00
64354;BME280;50681;53.334;-6.536;2024-01-30T00:03:59;101791.72;;;9.15;100.00
64354;BME280;50681;53.334;-6.536;2024-01-30T00:06:24;101798.63;;;9.06;100.00
64354;BME280;50681;53.334;-6.536;2024-01-30T00:08:50;101801.03;;;9.07;100.00
64354;BME280;50681;53.334;-6.536;2024-01-30T00:11:16;101810.19;;;9.46;100.00
64354;BME280;50681;53.334;-6.536;2024-01-30T00:13:41;101803.97;;;9.45;100.00
64354;BME280;50681;53.334;-6.536;2024-01-30T00:16:07;101808.91;;;9.76;100.00
64354;BME280;50681;53.334;-6.536;2024-01-30T00:18:34;101808.28;;;9.68;100.00
64354;BME280;50681;53.334;-6.536;2024-01-30T00:20:59;101810.44;;;9.66;100.00
64354;BME280;50681;53.334;-6.536;2024-01-30T00:23:25;101815.63;;;9.73;100.00
64354;BME280;50681;53.334;-6.536;2024-01-30T00:25:52;101816.59;;;9.62;100.00
64354;BME280;50681;53.334;-6.536;2024-01-30T00:28:18;101824.47;;;9.68;100.00
64354;BME280;50681;53.334;-6.536;2024-01-30T00:30:44;101820.91;;;9.63;100.00
64354;BME280;50681;53.334;-6.536;2024-01-30T00:33:09;101831.44;;;9.64;100.00
64354;BME280;50681;53.334;-6.536;2024-01-30T00:35:35;101815.53;;;9.63;100.00
64354;BME280;50681;53.334;-6.536;2024-01-30T00:38:00;101813.44;;;9.48;100.00
64354;BME280;50681;53.334;-6.536;2024-01-30T00:40:26;101829.25;;;9.39;100.00
64354;BME280;50681;53.334;-6.536;2024-01-30T00:42:51;101826.63;;;9.44;100.00
64354;BME280;50681;53.334;-6.536;2024-01-30T00:45:17;101829.41;;;9.99;100.00
64354;BME280;50681;53.334;-6.536;2024-01-30T00:47:43;101825.25;;;9.64;100.00
64354;BME280;50681;53.334;-6.536;2024-01-30T00:50:09;101829.19;;;9.56;100.00
64354;BME280;50681;53.334;-6.536;2024-01-30T00:52:37;101827.22;;;9.74;100.00
64354;BME280;50681;53.334;-6.536;2024-01-30T00:55:04;101819.28;;;9.62;100.00
64354;BME280;50681;53.334;-6.536;2024-01-30T00:57:30;101830.19;;;9.50;100.00
64354;BME280;50681;53.334;-6.536;2024-01-30T00:59:55;101821.38;;;9.15;100.00
64354;BME280;50681;53.334;-6.536;2024-01-30T01:02:21;101836.56;;;9.21;100.00
64354;BME280;50681;53.334;-6.536;2024-01-30T01:04:46;101836.75;;;9.37;100.00
64354;BME280;50681;53.334;-6.536;2024-01-30T01:07:12;101831.59;;;9.13;100.00
64354;BME280;50681;53.334;-6.536;2024-01-30T01:09:37;101834.84;;;9.15;100.00
64354;BME280;50681;53.334;-6.536;2024-01-30T01:12:03;101842.94;;;9.15;100.00
64354;BME280;50681;53.334;-6.536;2024-01-30T01:14:29;101835.50;;;9.45;100.00
64354;BME280;50681;53.334;-6.536;2024-01-30T01:16:55;101841.19;;;9.26;100.00
64354;BME280;50681;53.334;-6.536;2024-01-30T01:19:21;101844.41;;;9.45;100.00
64354;BME280;50681;53.334;-6.536;2024-01-30T01:21:47;101857.84;;;9.23;100.00
64354;BME280;50681;53.334;-6.536;2024-01-30T01:24:12;101860.38;;;9.30;100.00
64354;BME280;50681;53.334;-6.536;2024-01-30T01:26:38;101867.44;;;9.53;100.00
64354;BME280;50681;53.334;-6.536;2024-01-30T01:29:03;101868.75;;;9.50;100.00
64354;BME280;50681;53.334;-6.536;2024-01-30T01:31:37;101862.50;;;9.67;100.00
64354;BME280;50681;53.334;-6.536;2024-01-30T01:34:12;101858.66;;;9.63;100.00
64354;BME280;50681;53.334;-6.536;2024-01-30T01:36:39;101860.81;;;9.44;100.00
64354;BME280;50681;53.334;-6.536;2024-01-30T01:39:04;101863.91;;;9.13;100.00
64354;BME280;50681;53.334;-6.536;2024-01-30T01:41:34;101867.97;;;9.33;100.00
64354;BME280;50681;53.334;-6.536;2024-01-30T01:43:59;101872.91;;;9.02;100.00
64354;BME280;50681;53.334;-6.536;2024-01-30T01:46:30;101873.22;;;9.22;100.00
64354;BME280;50681;53.334;-6.536;2024-01-30T01:48:58;101874.06;;;8.14;100.00
64354;BME280;50681;53.334;-6.536;2024-01-30T01:51:27;101873.94;;;9.57;100.00
64354;BME280;50681;53.334;-6.536;2024-01-30T01:53:53;101873.97;;;8.37;100.00
64354;BME280;50681;53.334;-6.536;2024-01-30T01:56:19;101870.75;;;9.21;100.00
64354;BME280;50681;53.334;-6.536;2024-01-30T01:58:46;101884.56;;;8.56;100.00
64354;BME280;50681;53.334;-6.536;2024-01-30T02:01:27;101875.03;;;8.65;100.00
64354;BME280;50681;53.334;-6.536;2024-01-30T02:03:53;101885.00;;;8.82;100.00
64354;BME280;50681;53.334;-6.536;2024-01-30T02:06:19;101884.25;;;8.41;100.00
64354;BME280;50681;53.334;-6.536;2024-01-30T02:08:45;101891.88;;;8.32;100.00
64354;BME280;50681;53.334;-6.536;2024-01-30T02:11:11;101899.66;;;8.74;100.00
64354;BME280;50681;53.334;-6.536;2024-01-30T02:13:37;101895.91;;;8.75;100.00
64354;BME280;50681;53.334;-6.536;2024-01-30T02:16:02;101902.75;;;8.66;100.00
64354;BME280;50681;53.334;-6.536;2024-01-30T02:18:28;101891.53;;;8.86;100.00
64354;BME280;50681;53.334;-6.536;2024-01-30T02:20:56;101901.88;;;9.29;100.00
64354;BME280;50681;53.334;-6.536;2024-01-30T02:23:24;101903.25;;;9.48;100.00
64354;BME280;50681;53.334;-6.536;2024-01-30T02:25:50;101910.78;;;9.12;100.00
64354;BME280;50681;53.334;-6.536;2024-01-30T02:28:18;101907.00;;;9.30;100.00
64354;BME280;50681;53.334;-6.536;2024-01-30T02:30:44;101905.81;;;9.04;100.00
64354;BME280;50681;53.334;-6.536;2024-01-30T02:33:09;101910.97;;;8.30;100.00
64354;BME280;50681;53.334;-6.536;2024-01-30T02:35:35;101917.91;;;8.55;100.00
64354;BME280;50681;53.334;-6.536;2024-01-30T02:38:00;101914.03;;;8.80;100.00
64354;BME280;50681;53.334;-6.536;2024-01-30T02:40:26;101913.88;;;8.29;100.00
64354;BME280;50681;53.334;-6.536;2024-01-30T02:42:51;101918.88;;;8.37;100.00
64354;BME280;50681;53.334;-6.536;2024-01-30T02:45:17;101919.53;;;8.27;100.00
64354;BME280;50681;53.334;-6.536;2024-01-30T02:47:42;101919.91;;;8.19;100.00
64354;BME280;50681;53.334;-6.536;2024-01-30T02:50:08;101924.03;;;8.09;100.00
64354;BME280;50681;53.334;-6.536;2024-01-30T02:52:34;101918.25;;;7.77;100.00
64354;BME280;50681;53.334;-6.536;2024-01-30T02:54:59;101926.88;;;7.91;100.00
64354;BME280;50681;53.334;-6.536;2024-01-30T02:57:25;101913.97;;;8.05;100.00
64354;BME280;50681;53.334;-6.536;2024-01-30T02:59:51;101916.28;;;8.54;100.00
64354;BME280;50681;53.334;-6.536;2024-01-30T03:02:16;101920.41;;;8.04;100.00
64354;BME280;50681;53.334;-6.536;2024-01-30T03:04:41;101935.38;;;8.12;100.00
64354;BME280;50681;53.334;-6.536;2024-01-30T03:07:07;101930.72;;;8.36;100.00
64354;BME280;50681;53.334;-6.536;2024-01-30T03:09:33;101933.47;;;8.12;100.00
64354;BME280;50681;53.334;-6.536;2024-01-30T03:11:58;101936.09;;;8.36;100.00
64354;BME280;50681;53.334;-6.536;2024-01-30T03:14:24;101935.19;;;8.30;100.00
64354;BME280;50681;53.334;-6.536;2024-01-30T03:16:49;101938.53;;;7.97;100.00
64354;BME280;50681;53.334;-6.536;2024-01-30T03:19:15;101939.31;;;8.21;100.00
64354;BME280;50681;53.334;-6.536;2024-01-30T03:21:40;101931.81;;;8.23;100.00
64354;BME280;50681;53.334;-6.536;2024-01-30T03:24:06;101943.38;;;7.94;100.00
64354;BME280;50681;53.334;-6.536;2024-01-30T03:26:31;101947.41;;;8.09;100.00
64354;BME280;50681;53.334;-6.536;2024-01-30T03:28:57;101950.31;;;8.48;100.00
64354;BME280;50681;53.334;-6.536;2024-01-30T03:31:22;101954.50;;;8.27;100.00
64354;BME280;50681;53.334;-6.536;2024-01-30T03:33:47;101959.75;;;8.92;100.00
64354;BME280;50681;53.334;-6.536;2024-01-30T03:36:15;101964.47;;;9.70;100.00
64354;BME280;50681;53.334;-6.536;2024-01-30T03:38:40;101966.03;;;8.51;100.00
64354;BME280;50681;53.334;-6.536;2024-01-30T03:41:08;101962.84;;;8.14;100.00
64354;BME280;50681;53.334;-6.536;2024-01-30T03:43:33;101954.66;;;8.61;100.00
64354;BME280;50681;53.334;-6.536;2024-01-30T03:45:59;101962.06;;;8.54;100.00
64354;BME280;50681;53.334;-6.536;2024-01-30T03:48:24;101957.00;;;8.05;100.00
64354;BME280;50681;53.334;-6.536;2024-01-30T03:50:51;101969.06;;;8.02;100.00
64354;BME280;50681;53.334;-6.536;2024-01-30T03:53:17;101964.75;;;8.01;100.00
64354;BME280;50681;53.334;-6.536;2024-01-30T03:55:42;101971.63;;;8.09;100.00
64354;BME280;50681;53.334;-6.536;2024-01-30T03:58:08;101972.34;;;8.04;100.00
64354;BME280;50681;53.334;-6.536;2024-01-30T04:00:46;101987.13;;;8.31;100.00
64354;BME280;50681;53.334;-6.536;2024-01-30T04:03:11;101985.94;;;7.86;100.00
64354;BME280;50681;53.334;-6.536;2024-01-30T04:05:38;101986.69;;;8.22;100.00
64354;BME280;50681;53.334;-6.536;2024-01-30T04:08:03;101998.03;;;8.24;100.00
64354;BME280;50681;53.334;-6.536;2024-01-30T04:10:29;101996.88;;;8.08;100.00
64354;BME280;50681;53.334;-6.536;2024-01-30T04:12:54;101999.41;;;8.38;100.00
64354;BME280;50681;53.334;-6.536;2024-01-30T04:15:21;102001.69;;;8.06;100.00
64354;BME280;50681;53.334;-6.536;2024-01-30T04:17:46;102002.44;;;7.89;100.00
64354;BME280;50681;53.334;-6.536;2024-01-30T04:20:15;101987.09;;;8.43;100.00
64354;BME280;50681;53.334;-6.536;2024-01-30T04:22:46;101997.44;;;8.75;100.00
64354;BME280;50681;53.334;-6.536;2024-01-30T04:25:14;102003.59;;;8.87;100.00
64354;BME280;50681;53.334;-6.536;2024-01-30T04:27:39;102019.84;;;8.92;100.00
64354;BME280;50681;53.334;-6.536;2024-01-30T04:30:05;102007.13;;;9.22;100.00
64354;BME280;50681;53.334;-6.536;2024-01-30T04:32:31;102007.06;;;9.51;100.00
64354;BME280;50681;53.334;-6.536;2024-01-30T04:34:57;102009.91;;;9.27;98.10
64354;BME280;50681;53.334;-6.536;2024-01-30T04:37:23;102014.66;;;8.74;100.00
64354;BME280;50681;53.334;-6.536;2024-01-30T04:39:48;102010.53;;;8.18;100.00
64354;BME280;50681;53.334;-6.536;2024-01-30T04:42:13;102029.66;;;7.93;100.00
64354;BME280;50681;53.334;-6.536;2024-01-30T04:44:39;102032.94;;;7.95;100.00
64354;BME280;50681;53.334;-6.536;2024-01-30T04:47:04;102034.56;;;7.96;100.00
64354;BME280;50681;53.334;-6.536;2024-01-30T04:49:31;102038.97;;;8.50;100.00
64354;BME280;50681;53.334;-6.536;2024-01-30T04:51:56;102041.25;;;7.93;100.00
64354;BME280;50681;53.334;-6.536;2024-01-30T04:54:22;102037.38;;;7.89;100.00
64354;BME280;50681;53.334;-6.536;2024-01-30T04:56:47;102051.63;;;7.90;100.00
64354;BME280;50681;53.334;-6.536;2024-01-30T04:59:12;102043.41;;;8.32;100.00
64354;BME280;50681;53.334;-6.536;2024-01-30T05:01:38;102037.53;;;8.59;100.00
64354;BME280;50681;53.334;-6.536;2024-01-30T05:04:03;102047.19;;;7.84;100.00
64354;BME280;50681;53.334;-6.536;2024-01-30T05:06:29;102052.69;;;8.13;100.00
64354;BME280;50681;53.334;-6.536;2024-01-30T05:08:55;102050.69;;;8.20;100.00
64354;BME280;50681;53.334;-6.536;2024-01-30T05:11:20;102062.84;;;8.34;100.00
64354;BME280;50681;53.334;-6.536;2024-01-30T05:13:46;102049.28;;;8.05;100.00
64354;BME280;50681;53.334;-6.536;2024-01-30T05:16:11;102063.34;;;8.07;100.00
64354;BME280;50681;53.334;-6.536;2024-01-30T05:18:36;102063.59;;;8.71;100.00
64354;BME280;50681;53.334;-6.536;2024-01-30T05:21:02;102072.91;;;8.03;100.00
64354;BME280;50681;53.334;-6.536;2024-01-30T05:23:28;102074.91;;;8.20;100.00
64354;BME280;50681;53.334;-6.536;2024-01-30T05:25:54;102068.94;;;7.94;100.00
64354;BME280;50681;53.334;-6.536;2024-01-30T05:28:19;102076.75;;;7.95;100.00
64354;BME280;50681;53.334;-6.536;2024-01-30T05:30:45;102082.50;;;7.75;100.00
64354;BME280;50681;53.334;-6.536;2024-01-30T05:33:10;102082.28;;;7.89;100.00
64354;BME280;50681;53.334;-6.536;2024-01-30T05:35:37;102085.41;;;8.21;100.00
64354;BME280;50681;53.334;-6.536;2024-01-30T05:38:03;102083.81;;;8.08;100.00
64354;BME280;50681;53.334;-6.536;2024-01-30T05:40:28;102092.44;;;8.22;100.00
64354;BME280;50681;53.334;-6.536;2024-01-30T05:42:54;102086.38;;;8.27;100.00
64354;BME280;50681;53.334;-6.536;2024-01-30T05:45:19;102095.13;;;8.34;100.00
64354;BME280;50681;53.334;-6.536;2024-01-30T05:47:45;102095.97;;;8.23;100.00
64354;BME280;50681;53.334;-6.536;2024-01-30T05:50:10;102109.19;;;8.13;100.00
64354;BME280;50681;53.334;-6.536;2024-01-30T05:52:36;102105.69;;;7.88;100.00
64354;BME280;50681;53.334;-6.536;2024-01-30T05:55:02;102103.22;;;7.32;100.00
64354;BME280;50681;53.334;-6.536;2024-01-30T05:57:28;102115.88;;;7.56;100.00
64354;BME280;50681;53.334;-6.536;2024-01-30T05:59:53;102116.91;;;7.12;100.00
64354;BME280;50681;53.334;-6.536;2024-01-30T06:02:19;102131.22;;;7.25;100.00
64354;BME280;50681;53.334;-6.536;2024-01-30T06:04:46;102131.81;;;7.69;100.00
64354;BME280;50681;53.334;-6.536;2024-01-30T06:07:12;102132.34;;;7.17;100.00
64354;BME280;50681;53.334;-6.536;2024-01-30T06:09:37;102120.03;;;6.79;100.00
64354;BME280;50681;53.334;-6.536;2024-01-30T06:12:05;102142.63;;;7.50;100.00
64354;BME280;50681;53.334;-6.536;2024-01-30T06:14:30;102136.06;;;7.89;100.00
64354;BME280;50681;53.334;-6.536;2024-01-30T06:16:56;102138.84;;;7.70;100.00
64354;BME280;50681;53.334;-6.536;2024-01-30T06:19:21;102141.84;;;7.01;100.00
64354;BME280;50681;53.334;-6.536;2024-01-30T06:21:47;102141.31;;;7.41;100.00
64354;BME280;50681;53.334;-6.536;2024-01-30T06:24:12;102145.19;;;7.45;100.00
64354;BME280;50681;53.334;-6.536;2024-01-30T06:26:37;102145.78;;;7.47;100.00
64354;BME280;50681;53.334;-6.536;2024-01-30T06:29:03;102161.91;;;7.90;100.00
64354;BME280;50681;53.334;-6.536;2024-01-30T06:31:28;102164.91;;;7.09;100.00
64354;BME280;50681;53.334;-6.536;2024-01-30T06:33:54;102158.03;;;7.13;100.00
64354;BME280;50681;53.334;-6.536;2024-01-30T06:36:19;102162.13;;;6.97;100.00
64354;BME280;50681;53.334;-6.536;2024-01-30T06:38:45;102159.84;;;7.31;100.00
64354;BME280;50681;53.334;-6.536;2024-01-30T06:41:10;102157.50;;;6.85;100.00
64354;BME280;50681;53.334;-6.536;2024-01-30T06:43:35;102162.88;;;7.04;100.00
64354;BME280;50681;53.334;-6.536;2024-01-30T06:46:01;102175.25;;;7.05;100.00
64354;BME280;50681;53.334;-6.536;2024-01-30T06:48:26;102175.69;;;7.20;100.00
64354;BME280;50681;53.334;-6.536;2024-01-30T06:50:55;102171.84;;;7.47;100.00
64354;BME280;50681;53.334;-6.536;2024-01-30T06:53:20;102179.72;;;7.11;100.00
64354;BME280;50681;53.334;-6.536;2024-01-30T06:55:45;102186.38;;;7.27;100.00
64354;BME280;50681;53.334;-6.536;2024-01-30T06:58:11;102178.31;;;7.27;100.00
64354;BME280;50681;53.334;-6.536;2024-01-30T07:00:39;102181.69;;;8.07;100.00
64354;BME280;50681;53.334;-6.536;2024-01-30T07:03:05;102195.34;;;7.52;100.00
64354;BME280;50681;53.334;-6.536;2024-01-30T07:05:31;102186.59;;;7.56;100.00
64354;BME280;50681;53.334;-6.536;2024-01-30T07:07:56;102198.66;;;7.35;100.00
64354;BME280;50681;53.334;-6.536;2024-01-30T07:10:22;102198.06;;;7.33;100.00
64354;BME280;50681;53.334;-6.536;2024-01-30T07:12:47;102207.16;;;7.50;100.00
64354;BME280;50681;53.334;-6.536;2024-01-30T07:15:12;102202.81;;;7.49;100.00
64354;BME280;50681;53.334;-6.536;2024-01-30T07:17:41;102199.34;;;7.61;100.00
64354;BME280;50681;53.334;-6.536;2024-01-30T07:20:07;102206.19;;;7.75;100.00
64354;BME280;50681;53.334;-6.536;2024-01-30T07:22:34;102213.25;;;7.58;100.00
64354;BME280;50681;53.334;-6.536;2024-01-30T07:24:59;102211.81;;;7.86;100.00
64354;BME280;50681;53.334;-6.536;2024-01-30T07:27:25;102211.34;;;8.31;100.00
64354;BME280;50681;53.334;-6.536;2024-01-30T07:29:50;102212.69;;;7.98;100.00
64354;BME280;50681;53.334;-6.536;2024-01-30T07:32:16;102212.47;;;7.39;100.00
64354;BME280;50681;53.334;-6.536;2024-01-30T07:34:41;102227.75;;;7.87;100.00
64354;BME280;50681;53.334;-6.536;2024-01-30T07:37:06;102239.78;;;7.97;100.00
64354;BME280;50681;53.334;-6.536;2024-01-30T07:39:34;102243.41;;;7.60;100.00
64354;BME280;50681;53.334;-6.536;2024-01-30T07:42:00;102247.34;;;8.18;100.00
64354;BME280;50681;53.334;-6.536;2024-01-30T07:44:25;102245.59;;;8.24;100.00
64354;BME280;50681;53.334;-6.536;2024-01-30T07:46:50;102249.63;;;8.03;100.00
64354;BME280;50681;53.334;-6.536;2024-01-30T07:49:16;102247.78;;;8.15;100.00
64354;BME280;50681;53.334;-6.536;2024-01-30T07:51:41;102261.28;;;8.27;100.00
64354;BME280;50681;53.334;-6.536;2024-01-30T07:54:08;102272.69;;;8.65;100.00
64354;BME280;50681;53.334;-6.536;2024-01-30T07:56:33;102271.59;;;7.39;100.00
64354;BME280;50681;53.334;-6.536;2024-01-30T07:58:58;102265.94;;;7.28;100.00
64354;BME280;50681;53.334;-6.536;2024-01-30T08:01:24;102268.22;;;7.25;100.00
64354;BME280;50681;53.334;-6.536;2024-01-30T08:03:49;102269.84;;;7.63;100.00
64354;BME280;50681;53.334;-6.536;2024-01-30T08:06:15;102271.00;;;7.37;100.00
64354;BME280;50681;53.334;-6.536;2024-01-30T08:08:40;102261.44;;;7.41;100.00
64354;BME280;50681;53.334;-6.536;2024-01-30T08:11:06;102277.56;;;7.22;100.00
64354;BME280;50681;53.334;-6.536;2024-01-30T08:13:32;102281.56;;;7.99;100.00
64354;BME280;50681;53.334;-6.536;2024-01-30T08:15:58;102275.53;;;8.16;100.00
64354;BME280;50681;53.334;-6.536;2024-01-30T08:18:23;102280.66;;;8.05;100.00
64354;BME280;50681;53.334;-6.536;2024-01-30T08:20:49;102285.75;;;7.95;100.00
64354;BME280;50681;53.334;-6.536;2024-01-30T08:23:14;102291.72;;;7.97;100.00
64354;BME280;50681;53.334;-6.536;2024-01-30T08:25:39;102295.22;;;7.98;100.00
64354;BME280;50681;53.334;-6.536;2024-01-30T08:28:05;102301.59;;;8.15;100.00
64354;BME280;50681;53.334;-6.536;2024-01-30T08:30:31;102311.91;;;8.49;100.00
64354;BME280;50681;53.334;-6.536;2024-01-30T08:33:04;102314.06;;;8.28;100.00
64354;BME280;50681;53.334;-6.536;2024-01-30T08:35:30;102323.56;;;8.00;100.00
64354;BME280;50681;53.334;-6.536;2024-01-30T08:37:59;102315.84;;;8.04;100.00
64354;BME280;50681;53.334;-6.536;2024-01-30T08:40:24;102302.78;;;8.50;100.00
64354;BME280;50681;53.334;-6.536;2024-01-30T08:42:50;102308.28;;;8.55;100.00
64354;BME280;50681;53.334;-6.536;2024-01-30T08:45:15;102299.28;;;8.73;100.00
64354;BME280;50681;53.334;-6.536;2024-01-30T08:47:41;102299.88;;;8.63;100.00
64354;BME280;50681;53.334;-6.536;2024-01-30T08:50:07;102306.31;;;8.62;100.00
64354;BME280;50681;53.334;-6.536;2024-01-30T08:52:32;102316.50;;;8.60;100.00
64354;BME280;50681;53.334;-6.536;2024-01-30T08:54:59;102325.16;;;8.62;100.00
64354;BME280;50681;53.334;-6.536;2024-01-30T08:57:24;102321.28;;;8.58;100.00
64354;BME280;50681;53.334;-6.536;2024-01-30T08:59:54;102330.53;;;8.20;100.00
64354;BME280;50681;53.334;-6.536;2024-01-30T09:02:19;102336.72;;;8.51;100.00
64354;BME280;50681;53.334;-6.536;2024-01-30T09:04:44;102342.41;;;8.85;100.00
64354;BME280;50681;53.334;-6.536;2024-01-30T09:07:10;102350.81;;;8.77;100.00
64354;BME280;50681;53.334;-6.536;2024-01-30T09:09:37;102366.53;;;9.39;100.00
64354;BME280;50681;53.334;-6.536;2024-01-30T09:12:04;102357.41;;;9.29;100.00
64354;BME280;50681;53.334;-6.536;2024-01-30T09:14:33;102359.53;;;9.03;100.00
64354;BME280;50681;53.334;-6.536;2024-01-30T09:16:58;102366.66;;;9.33;100.00
64354;BME280;50681;53.334;-6.536;2024-01-30T09:19:24;102376.31;;;9.81;100.00
64354;BME280;50681;53.334;-6.536;2024-01-30T09:21:49;102369.88;;;10.11;100.00
64354;BME280;50681;53.334;-6.536;2024-01-30T09:24:15;102360.72;;;9.71;100.00
64354;BME280;50681;53.334;-6.536;2024-01-30T09:26:40;102374.22;;;10.12;100.00
64354;BME280;50681;53.334;-6.536;2024-01-30T09:29:05;102362.53;;;10.24;100.00
64354;BME280;50681;53.334;-6.536;2024-01-30T09:31:31;102371.44;;;10.53;100.00
64354;BME280;50681;53.334;-6.536;2024-01-30T09:33:57;102367.03;;;10.47;100.00
64354;BME280;50681;53.334;-6.536;2024-01-30T09:36:22;102379.47;;;10.65;100.00
64354;BME280;50681;53.334;-6.536;2024-01-30T09:38:48;102390.53;;;10.81;100.00
64354;BME280;50681;53.334;-6.536;2024-01-30T09:41:14;102381.44;;;10.87;100.00
64354;BME280;50681;53.334;-6.536;2024-01-30T09:43:41;102400.59;;;10.68;100.00
64354;BME280;50681;53.334;-6.536;2024-01-30T09:46:14;102400.06;;;10.83;100.00
64354;BME280;50681;53.334;-6.536;2024-01-30T09:48:46;102378.56;;;11.11;100.00
64354;BME280;50681;53.334;-6.536;2024-01-30T09:51:14;102376.38;;;10.73;100.00
64354;BME280;50681;53.334;-6.536;2024-01-30T09:53:45;102381.59;;;10.97;100.00
64354;BME280;50681;53.334;-6.536;2024-01-30T09:56:12;102394.72;;;10.88;100.00
64354;BME280;50681;53.334;-6.536;2024-01-30T09:58:38;102391.19;;;10.54;100.00
64354;BME280;50681;53.334;-6.536;2024-01-30T10:01:07;102388.16;;;11.01;100.00
64354;BME280;50681;53.334;-6.536;2024-01-30T10:03:32;102397.25;;;10.95;100.00
64354;BME280;50681;53.334;-6.536;2024-01-30T10:05:58;102396.69;;;10.76;100.00
64354;BME280;50681;53.334;-6.536;2024-01-30T10:08:26;102393.28;;;11.76;100.00
64354;BME280;50681;53.334;-6.536;2024-01-30T10:10:51;102403.38;;;11.08;100.00
64354;BME280;50681;53.334;-6.536;2024-01-30T10:13:17;102388.47;;;11.22;100.00
64354;BME280;50681;53.334;-6.536;2024-01-30T10:15:43;102396.19;;;11.13;100.00
64354;BME280;50681;53.334;-6.536;2024-01-30T10:18:10;102407.59;;;11.55;100.00
64354;BME280;50681;53.334;-6.536;2024-01-30T10:20:36;102408.69;;;11.37;99.94
64354;BME280;50681;53.334;-6.536;2024-01-30T10:23:02;102407.41;;;11.61;100.00
64354;BME280;50681;53.334;-6.536;2024-01-30T10:25:27;102401.97;;;11.39;100.00
64354;BME280;50681;53.334;-6.536;2024-01-30T10:27:54;102392.44;;;11.76;100.00
64354;BME280;50681;53.334;-6.536;2024-01-30T10:30:23;102393.38;;;11.65;100.00
64354;BME280;50681;53.334;-6.536;2024-01-30T10:32:50;102399.66;;;11.93;99.06
64354;BME280;50681;53.334;-6.536;2024-01-30T10:35:16;102392.94;;;11.73;100.00
64354;BME280;50681;53.334;-6.536;2024-01-30T10:37:47;102404.09;;;12.21;100.00
64354;BME280;50681;53.334;-6.536;2024-01-30T10:40:14;102404.91;;;11.77;100.00
64354;BME280;50681;53.334;-6.536;2024-01-30T10:42:44;102409.50;;;12.21;99.96
64354;BME280;50681;53.334;-6.536;2024-01-30T10:45:14;102416.78;;;11.76;100.00
64354;BME280;50681;53.334;-6.536;2024-01-30T10:48:01;102419.06;;;11.84;100.00
64354;BME280;50681;53.334;-6.536;2024-01-30T10:50:29;102424.41;;;11.79;100.00
64354;BME280;50681;53.334;-6.536;2024-01-30T10:52:56;102422.97;;;11.71;100.00
64354;BME280;50681;53.334;-6.536;2024-01-30T10:55:23;102426.63;;;11.43;100.00
64354;BME280;50681;53.334;-6.536;2024-01-30T10:57:49;102429.41;;;11.48;100.00
64354;BME280;50681;53.334;-6.536;2024-01-30T11:00:16;102421.16;;;11.03;100.00
64354;BME280;50681;53.334;-6.536;2024-01-30T11:02:44;102431.47;;;11.80;100.00
64354;BME280;50681;53.334;-6.536;2024-01-30T11:05:10;102425.81;;;12.04;100.00
64354;BME280;50681;53.334;-6.536;2024-01-30T11:07:39;102421.72;;;12.24;100.00
64354;BME280;50681;53.334;-6.536;2024-01-30T11:10:06;102431.53;;;12.30;100.00
64354;BME280;50681;53.334;-6.536;2024-01-30T11:12:38;102439.94;;;12.28;100.00
64354;BME280;50681;53.334;-6.536;2024-01-30T11:15:13;102442.13;;;12.31;100.00
64354;BME280;50681;53.334;-6.536;2024-01-30T11:20:30;102450.38;;;13.02;100.00
64354;BME280;50681;53.334;-6.536;2024-01-30T11:23:01;102434.59;;;11.72;100.00
64354;BME280;50681;53.334;-6.536;2024-01-30T11:25:31;102437.00;;;11.90;100.00
64354;BME280;50681;53.334;-6.536;2024-01-30T11:27:57;102431.16;;;11.99;100.00
64354;BME280;50681;53.334;-6.536;2024-01-30T11:33:07;102443.22;;;12.90;100.00
64354;BME280;50681;53.334;-6.536;2024-01-30T11:35:35;102441.56;;;12.84;100.00
64354;BME280;50681;53.334;-6.536;2024-01-30T11:38:02;102445.44;;;12.93;100.00
64354;BME280;50681;53.334;-6.536;2024-01-30T11:40:30;102445.16;;;12.62;100.00
64354;BME280;50681;53.334;-6.536;2024-01-30T11:42:56;102439.13;;;12.88;100.00
64354;BME280;50681;53.334;-6.536;2024-01-30T11:45:23;102438.53;;;12.81;100.00
64354;BME280;50681;53.334;-6.536;2024-01-30T11:47:51;102437.66;;;13.07;100.00
64354;BME280;50681;53.334;-6.536;2024-01-30T11:50:17;102429.31;;;12.82;100.00
64354;BME280;50681;53.334;-6.536;2024-01-30T11:52:43;102439.78;;;12.68;100.00
64354;BME280;50681;53.334;-6.536;2024-01-30T11:55:09;102435.94;;;12.96;100.00
64354;BME280;50681;53.334;-6.536;2024-01-30T11:57:35;102421.69;;;12.78;100.00
64354;BME280;50681;53.334;-6.536;2024-01-30T12:00:05;102417.97;;;13.28;100.00
64354;BME280;50681;53.334;-6.536;2024-01-30T12:02:36;102414.81;;;12.98;100.00
64354;BME280;50681;53.334;-6.536;2024-01-30T12:05:06;102409.75;;;13.07;100.00
64354;BME280;50681;53.334;-6.536;2024-01-30T12:07:32;102412.28;;;12.86;100.00
64354;BME280;50681;53.334;-6.536;2024-01-30T12:09:57;102412.47;;;13.12;100.00
64354;BME280;50681;53.334;-6.536;2024-01-30T12:12:27;102410.09;;;13.69;100.00
64354;BME280;50681;53.334;-6.536;2024-01-30T12:14:55;102418.19;;;13.16;100.00
64354;BME280;50681;53.334;-6.536;2024-01-30T12:17:29;102392.44;;;13.61;100.00
64354;BME280;50681;53.334;-6.536;2024-01-30T12:20:14;102396.91;;;13.93;100.00
64354;BME280;50681;53.334;-6.536;2024-01-30T12:22:41;102399.56;;;13.78;100.00
64354;BME280;50681;53.334;-6.536;2024-01-30T12:25:11;102400.38;;;13.84;100.00
64354;BME280;50681;53.334;-6.536;2024-01-30T12:27:37;102400.94;;;13.86;100.00
64354;BME280;50681;53.334;-6.536;2024-01-30T12:30:06;102399.63;;;13.99;100.00
64354;BME280;50681;53.334;-6.536;2024-01-30T12:32:35;102399.94;;;14.13;100.00
64354;BME280;50681;53.334;-6.536;2024-01-30T12:35:01;102396.72;;;13.52;100.00
64354;BME280;50681;53.334;-6.536;2024-01-30T12:37:26;102385.31;;;13.50;100.00
64354;BME280;50681;53.334;-6.536;2024-01-30T12:39:52;102397.09;;;13.71;100.00